Time;durP1;ratioP1;P1;durP2;ratioP2;P2;SDS_P1;SDS_P2;PMS_P1;PMS_P2;Temp;Humidity;BMP_temperature;BMP_pressure;BME280_temperature;BME280_humidity;BME280_pressure;Samples;Min_cycle;Max_cycle;Signal;HPM_P1;HPM_P2
2023/12/03 00:02:25;;;;;;;56.13;27.37;;;2.20;84.10;;;;;;772132;186;27085;-89
2023/12/03 00:04:52;;;;;;;81.37;35.70;;;2.20;85.00;;;;;;772131;186;26517;-87
2023/12/03 00:07:18;;;;;;;260.03;103.90;;;2.20;84.30;;;;;;771927;182;26503;-88
2023/12/03 00:09:46;;;;;;;306.07;113.80;;;2.20;84.40;;;;;;771797;182;26477;-88
2023/12/03 00:12:11;;;;;;;197.80;67.13;;;2.10;84.20;;;;;;770728;183;26513;-87
2023/12/03 00:14:38;;;;;;;279.50;95.10;;;2.00;83.90;;;;;;766207;187;27117;-89
2023/12/03 00:17:04;;;;;;;490.90;211.27;;;2.00;85.30;;;;;;766510;188;26490;-88
2023/12/03 00:19:31;;;;;;;212.47;90.83;;;2.00;86.00;;;;;;766628;186;26481;-88
2023/12/03 00:21:58;;;;;;;106.87;50.27;;;1.90;85.40;;;;;;766631;184;26479;-88
2023/12/03 00:24:24;;;;;;;119.03;53.03;;;1.80;85.90;;;;;;767003;186;26471;-90
2023/12/03 00:26:51;;;;;;;51.43;25.23;;;1.80;86.00;;;;;;766604;186;28174;-89
2023/12/03 00:29:17;;;;;;;113.47;49.93;;;1.90;86.10;;;;;;766643;181;26501;-89
2023/12/03 00:31:44;;;;;;;51.13;26.37;;;1.90;86.20;;;;;;766260;188;28115;-88
2023/12/03 00:34:11;;;;;;;85.33;38.60;;;1.90;86.30;;;;;;766254;187;26476;-88
2023/12/03 00:36:37;;;;;;;78.10;35.23;;;1.90;85.70;;;;;;766392;186;28104;-89
2023/12/03 00:39:04;;;;;;;39.17;20.33;;;1.90;85.90;;;;;;765988;186;26557;-88
2023/12/03 00:41:30;;;;;;;51.37;26.10;;;1.90;85.90;;;;;;765555;185;26479;-88
2023/12/03 00:43:57;;;;;;;31.90;17.77;;;1.90;86.40;;;;;;765668;187;27038;-87
2023/12/03 00:46:24;;;;;;;38.37;20.97;;;1.90;86.60;;;;;;765700;186;26811;-89
2023/12/03 00:48:50;;;;;;;43.90;22.43;;;2.00;86.00;;;;;;766274;185;28084;-88
2023/12/03 00:51:17;;;;;;;42.43;21.53;;;1.90;85.30;;;;;;770939;182;26551;-88
2023/12/03 00:53:43;;;;;;;36.60;20.70;;;1.90;85.70;;;;;;770978;186;28083;-88
2023/12/03 00:56:10;;;;;;;29.23;17.67;;;1.90;85.30;;;;;;770802;186;26758;-88
2023/12/03 00:58:37;;;;;;;30.13;15.97;;;1.90;86.00;;;;;;770927;186;26480;-88
2023/12/03 01:01:04;;;;;;;30.37;15.33;;;1.90;85.60;;;;;;770798;182;26501;-87
2023/12/03 01:03:30;;;;;;;36.57;19.77;;;1.90;85.40;;;;;;773004;184;26484;-88
2023/12/03 01:05:57;;;;;;;31.87;17.20;;;1.90;84.70;;;;;;773066;184;27123;-88
2023/12/03 01:08:24;;;;;;;87.00;39.37;;;1.90;84.90;;;;;;772453;182;26483;-88
2023/12/03 01:10:50;;;;;;;167.67;74.37;;;1.90;85.00;;;;;;772609;182;26480;-88
2023/12/03 01:13:17;;;;;;;62.57;31.10;;;1.80;84.80;;;;;;772057;186;26480;-87
2023/12/03 01:15:44;;;;;;;41.67;22.00;;;1.90;86.10;;;;;;772174;186;27038;-88
2023/12/03 01:18:11;;;;;;;30.70;17.13;;;2.00;88.20;;;;;;771261;183;26494;-89
2023/12/03 01:20:37;;;;;;;33.33;18.50;;;2.10;88.20;;;;;;770736;184;26487;-88
2023/12/03 01:23:03;;;;;;;33.37;18.30;;;2.10;88.30;;;;;;769694;184;26471;-88
2023/12/03 01:25:30;;;;;;;33.10;19.87;;;2.10;88.30;;;;;;775248;184;26487;-89
2023/12/03 01:27:56;;;;;;;32.43;17.03;;;2.30;88.50;;;;;;772654;184;27082;-88
2023/12/03 01:30:23;;;;;;;38.57;21.57;;;2.30;87.50;;;;;;770024;186;26486;-88
2023/12/03 01:32:49;;;;;;;65.00;31.37;;;2.30;87.50;;;;;;766427;184;26481;-87
2023/12/03 01:35:17;;;;;;;38.40;21.03;;;2.40;87.10;;;;;;779571;184;26493;-88
2023/12/03 01:37:43;;;;;;;30.77;19.13;;;2.40;87.10;;;;;;783568;183;26473;-89
2023/12/03 01:40:10;;;;;;;30.30;18.63;;;2.50;88.00;;;;;;772740;180;27046;-87
2023/12/03 01:42:37;;;;;;;44.10;23.20;;;2.50;87.40;;;;;;766192;185;26483;-88
2023/12/03 01:45:04;;;;;;;43.40;23.50;;;2.50;86.90;;;;;;766047;183;26491;-88
2023/12/03 01:47:31;;;;;;;38.43;20.77;;;2.60;86.80;;;;;;766058;185;26479;-88
2023/12/03 01:49:57;;;;;;;28.70;18.13;;;2.60;86.70;;;;;;766169;183;27038;-88
2023/12/03 01:52:24;;;;;;;29.17;17.70;;;2.60;87.10;;;;;;768652;182;26825;-88
2023/12/03 01:54:50;;;;;;;31.27;18.30;;;2.60;87.70;;;;;;771069;185;27044;-88
2023/12/03 01:57:17;;;;;;;27.43;17.33;;;2.50;86.60;;;;;;771122;183;26539;-88
2023/12/03 01:59:45;;;;;;;26.43;16.33;;;2.50;87.10;;;;;;771055;185;26472;-88
2023/12/03 02:02:10;;;;;;;31.03;17.87;;;2.60;87.40;;;;;;770898;182;26512;-88
2023/12/03 02:04:37;;;;;;;26.13;16.63;;;2.50;86.80;;;;;;771248;182;28096;-88
2023/12/03 02:07:03;;;;;;;25.77;15.93;;;2.60;87.90;;;;;;771130;186;26501;-87
2023/12/03 02:09:30;;;;;;;25.90;16.93;;;2.60;87.20;;;;;;771422;181;27056;-88
2023/12/03 02:11:56;;;;;;;28.47;16.50;;;2.60;86.80;;;;;;771150;186;26487;-87
2023/12/03 02:14:24;;;;;;;26.07;16.27;;;2.60;86.30;;;;;;772499;184;28072;-89
2023/12/03 02:16:50;;;;;;;26.13;17.43;;;2.70;87.80;;;;;;773392;182;26484;-89
2023/12/03 02:19:16;;;;;;;25.80;16.53;;;2.70;87.20;;;;;;772796;186;26488;-88
2023/12/03 02:21:43;;;;;;;28.20;16.57;;;2.70;87.10;;;;;;764665;185;26540;-88
2023/12/03 02:24:36;;;;;;;26.90;17.07;;;2.80;86.90;;;;;;772303;182;26501;-88
2023/12/03 02:27:03;;;;;;;28.77;17.03;;;2.70;86.40;;;;;;772265;185;26477;-87
2023/12/03 02:29:30;;;;;;;26.60;16.43;;;2.70;85.80;;;;;;767707;186;26471;-87
2023/12/03 02:31:56;;;;;;;28.70;15.97;;;2.60;85.00;;;;;;766764;185;27106;-87
2023/12/03 02:34:38;;;;;;;32.03;18.03;;;2.50;85.60;;;;;;766666;186;26544;-90
2023/12/03 02:37:05;;;;;;;27.27;17.20;;;2.40;84.70;;;;;;753176;190;26537;-87
2023/12/03 02:39:32;;;;;;;25.83;15.73;;;2.40;85.30;;;;;;758778;187;26520;-88
2023/12/03 02:41:58;;;;;;;27.17;15.70;;;2.40;85.30;;;;;;761734;187;26523;-88
2023/12/03 02:44:25;;;;;;;25.83;16.13;;;2.20;85.00;;;;;;764639;186;26509;-88
2023/12/03 02:46:51;;;;;;;28.37;16.43;;;2.10;86.90;;;;;;752522;190;26549;-88
2023/12/03 02:52:04;;;;;;;51.77;24.17;;;2.00;87.90;;;;;;752932;187;26486;-85
2023/12/03 02:54:30;;;;;;;28.07;16.50;;;1.90;87.80;;;;;;763594;185;26574;-86
2023/12/03 02:57:07;;;;;;;;;;;;;;;;;;;;;
2023/12/03 02:59:50;;;;;;;28.27;15.17;;;1.90;88.50;;;;;;757378;187;26534;-86
2023/12/03 03:02:17;;;;;;;30.50;15.50;;;1.90;88.20;;;;;;752770;190;26526;-86
2023/12/03 03:04:45;;;;;;;27.97;15.67;;;1.90;89.00;;;;;;749354;188;26522;-86
2023/12/03 03:10:01;;;;;;;31.83;16.40;;;1.90;89.30;;;;;;751900;188;26535;-88
2023/12/03 03:12:42;;;;;;;26.33;14.73;;;1.80;88.90;;;;;;752179;190;26565;-87
2023/12/03 03:15:15;;;;;;;27.10;15.80;;;1.90;89.00;;;;;;752317;190;26608;-86
2023/12/03 03:17:48;;;;;;;28.10;15.20;;;1.80;88.50;;;;;;752136;188;27067;-87
2023/12/03 03:20:17;;;;;;;26.73;15.43;;;1.80;88.50;;;;;;751473;188;26535;-86
2023/12/03 03:22:42;;;;;;;29.00;15.10;;;1.90;89.40;;;;;;752236;191;26536;-88
2023/12/03 03:25:15;;;;;;;24.97;14.10;;;1.90;88.90;;;;;;753075;188;26604;-87
2023/12/03 03:27:46;;;;;;;23.43;14.03;;;2.00;89.00;;;;;;754457;186;26522;-90
2023/12/03 03:33:41;;;;;;;27.10;14.77;;;2.10;87.50;;;;;;736706;194;26569;-87
2023/12/03 03:36:26;;;;;;;24.80;14.63;;;2.10;88.40;;;;;;746408;190;26600;-86
2023/12/03 03:42:14;;;;;;;28.43;16.63;;;2.00;90.10;;;;;;738518;193;26631;-86
2023/12/03 03:47:56;;;;;;;28.20;17.10;;;1.90;90.10;;;;;;737456;193;26559;-86
2023/12/03 03:50:35;;;;;;;26.27;15.17;;;1.90;90.10;;;;;;736210;194;26620;-87
2023/12/03 03:53:23;;;;;;;26.40;15.40;;;1.90;90.20;;;;;;740020;190;27130;-88
2023/12/03 03:56:05;;;;;;;28.37;15.87;;;1.90;90.30;;;;;;751215;191;26534;-89
2023/12/03 04:04:37;;;;;;;;;;;;;;;;;;;;;
2023/12/03 04:07:11;;;;;;;26.17;15.47;;;2.20;90.00;;;;;;752442;191;26530;-87
2023/12/03 04:10:01;;;;;;;;;;;;;;;;;;;;;
2023/12/03 04:12:31;;;;;;;29.07;16.10;;;2.10;88.10;;;;;;755242;190;26545;-87
2023/12/03 04:14:58;;;;;;;24.80;14.07;;;2.20;88.40;;;;;;751300;191;28138;-87
2023/12/03 04:18:02;;;;;;;;;;;;;;;;;;;;;
2023/12/03 04:20:39;;;;;;;20.03;12.40;;;2.20;87.00;;;;;;748575;190;28171;-90
2023/12/03 04:23:09;;;;;;;22.27;12.40;;;2.30;88.50;;;;;;752847;188;26513;-91
2023/12/03 04:25:42;;;;;;;28.07;14.00;;;2.30;86.50;;;;;;751536;190;26579;-89
2023/12/03 04:28:34;;;;;;;71.70;28.37;;;2.20;84.80;;;;;;751914;188;26548;-95
2023/12/03 04:31:01;;;;;;;41.97;20.53;;;2.20;85.10;;;;;;753187;184;26547;-89
2023/12/03 04:33:41;;;;;;;25.37;13.50;;;2.20;85.70;;;;;;753348;184;26506;-94
2023/12/03 04:36:08;;;;;;;19.80;12.07;;;2.20;85.30;;;;;;752324;184;26593;-87
2023/12/03 04:47:38;;;;;;;57.03;22.47;;;1.90;84.40;;;;;;713284;180;26525;-89
2023/12/03 04:50:28;;;;;;;24.90;12.27;;;1.90;85.70;;;;;;765783;187;26511;-88
2023/12/03 04:53:03;;;;;;;23.80;12.83;;;1.80;86.30;;;;;;754271;190;26609;-86
2023/12/03 04:55:40;;;;;;;22.53;12.17;;;1.70;85.90;;;;;;765350;187;26564;-86
2023/12/03 04:58:42;;;;;;;22.87;11.20;;;1.60;86.50;;;;;;765064;187;26492;-86
2023/12/03 05:01:08;;;;;;;22.03;12.20;;;1.60;86.80;;;;;;781439;174;27023;-88
2023/12/03 05:03:35;;;;;;;19.87;11.93;;;1.60;87.70;;;;;;792853;180;26478;-87
2023/12/03 05:06:02;;;;;;;23.50;11.93;;;1.40;86.90;;;;;;783540;183;26491;-87
2023/12/03 05:08:28;;;;;;;22.87;12.83;;;1.30;87.30;;;;;;769105;184;26498;-87
2023/12/03 05:10:55;;;;;;;20.73;12.30;;;1.40;89.10;;;;;;784200;183;26496;-88
2023/12/03 05:13:21;;;;;;;20.93;10.77;;;1.30;88.10;;;;;;767360;187;27039;-86
2023/12/03 05:15:48;;;;;;;20.10;11.47;;;1.40;88.60;;;;;;775481;184;26418;-87
2023/12/03 05:18:15;;;;;;;21.93;11.07;;;1.40;88.20;;;;;;796949;180;26415;-87
2023/12/03 05:20:41;;;;;;;22.03;11.47;;;1.40;87.80;;;;;;796757;180;26399;-86
2023/12/03 05:23:12;;;;;;;20.07;11.20;;;1.60;87.80;;;;;;796748;180;26424;-86
2023/12/03 05:25:44;;;;;;;19.83;11.80;;;1.60;87.30;;;;;;782284;183;26400;-87
2023/12/03 05:28:10;;;;;;;20.60;11.40;;;1.60;86.80;;;;;;796813;180;26395;-87
2023/12/03 05:30:37;;;;;;;18.63;10.60;;;1.60;86.40;;;;;;788469;180;26491;-88
2023/12/03 05:33:03;;;;;;;19.27;11.43;;;1.60;86.00;;;;;;794592;180;26951;-88
2023/12/03 05:35:30;;;;;;;20.43;11.90;;;1.50;86.50;;;;;;793641;180;26489;-89
2023/12/03 05:37:57;;;;;;;18.77;10.93;;;1.50;86.00;;;;;;767103;187;26567;-89
2023/12/03 05:40:23;;;;;;;20.20;11.77;;;1.60;87.20;;;;;;782984;183;26983;-88
2023/12/03 05:42:50;;;;;;;22.83;11.43;;;1.50;87.00;;;;;;766676;182;26496;-88
2023/12/03 05:45:16;;;;;;;20.90;12.10;;;1.50;86.50;;;;;;781105;179;27235;-91
2023/12/03 05:47:43;;;;;;;18.17;10.30;;;1.60;86.70;;;;;;769323;185;26480;-87
2023/12/03 05:50:10;;;;;;;20.07;10.80;;;1.60;86.30;;;;;;782998;182;26527;-87
2023/12/03 05:52:36;;;;;;;18.77;10.13;;;1.50;86.10;;;;;;781746;181;26485;-86
2023/12/03 05:55:03;;;;;;;20.87;11.10;;;1.60;86.70;;;;;;781841;183;26662;-88
2023/12/03 05:57:30;;;;;;;19.20;10.97;;;1.60;86.60;;;;;;793248;180;26424;-89
2023/12/03 05:59:56;;;;;;;17.47;11.20;;;1.60;85.40;;;;;;785254;180;26486;-89
2023/12/03 06:02:23;;;;;;;20.53;10.97;;;1.50;85.40;;;;;;784069;182;28072;-88
2023/12/03 06:04:49;;;;;;;18.40;10.87;;;1.60;86.30;;;;;;768046;187;26501;-88
2023/12/03 06:07:16;;;;;;;19.07;10.80;;;1.60;86.00;;;;;;784129;183;26462;-87
2023/12/03 06:09:43;;;;;;;19.47;10.20;;;1.50;85.00;;;;;;767755;187;26997;-88
2023/12/03 06:12:09;;;;;;;19.47;10.80;;;1.60;86.30;;;;;;781797;184;26528;-89
2023/12/03 06:14:36;;;;;;;17.17;10.87;;;1.60;85.60;;;;;;767802;182;27028;-89
2023/12/03 06:17:02;;;;;;;19.10;11.17;;;1.60;85.00;;;;;;783705;183;26468;-91
2023/12/03 06:19:29;;;;;;;17.20;10.17;;;1.60;85.10;;;;;;767207;187;26525;-89
2023/12/03 06:21:57;;;;;;;18.27;10.23;;;1.60;83.90;;;;;;781837;184;28126;-89
2023/12/03 06:24:22;;;;;;;19.20;12.13;;;1.60;84.90;;;;;;775922;180;26972;-88
2023/12/03 06:26:49;;;;;;;22.50;10.37;;;1.60;85.20;;;;;;781881;183;26450;-89
2023/12/03 06:29:15;;;;;;;20.07;11.70;;;1.50;84.10;;;;;;782093;181;26512;-86
2023/12/03 06:31:42;;;;;;;20.63;11.43;;;1.60;85.00;;;;;;796244;180;26504;-88
2023/12/03 06:34:09;;;;;;;19.43;11.27;;;1.50;83.90;;;;;;796090;177;26487;-89
2023/12/03 06:36:35;;;;;;;19.53;11.23;;;1.60;84.60;;;;;;795927;180;26943;-89
2023/12/03 06:39:02;;;;;;;20.90;11.20;;;1.70;85.30;;;;;;796075;180;26391;-88
2023/12/03 06:41:28;;;;;;;21.63;12.03;;;1.60;83.80;;;;;;796108;177;26948;-90
2023/12/03 06:43:55;;;;;;;21.20;11.17;;;1.70;85.00;;;;;;796208;180;26433;-88
2023/12/03 06:46:22;;;;;;;22.37;12.37;;;1.70;83.20;;;;;;795972;180;26443;-88
2023/12/03 06:48:48;;;;;;;19.57;11.10;;;1.60;83.00;;;;;;796096;177;26382;-91
2023/12/03 06:51:15;;;;;;;21.23;11.37;;;1.60;83.90;;;;;;796429;177;26448;-89
2023/12/03 06:53:41;;;;;;;23.57;12.07;;;1.60;84.50;;;;;;796088;180;26943;-88
2023/12/03 06:56:10;;;;;;;19.63;10.90;;;1.50;83.50;;;;;;796562;180;26404;-89
2023/12/03 06:58:35;;;;;;;21.10;11.20;;;1.70;85.10;;;;;;796812;180;26400;-89
2023/12/03 07:01:02;;;;;;;17.97;10.50;;;1.60;83.90;;;;;;797895;178;26407;-89
2023/12/03 07:03:29;;;;;;;20.20;11.13;;;1.70;84.70;;;;;;798960;177;26460;-89
2023/12/03 07:05:55;;;;;;;18.80;10.97;;;1.70;83.80;;;;;;797428;179;26424;-87
2023/12/03 07:08:22;;;;;;;22.27;12.40;;;1.70;84.70;;;;;;798867;176;26442;-87
2023/12/03 07:10:48;;;;;;;19.43;10.63;;;1.60;85.30;;;;;;795743;180;26464;-86
2023/12/03 07:13:15;;;;;;;21.57;11.33;;;1.70;84.60;;;;;;798085;180;27122;-86
2023/12/03 07:15:42;;;;;;;19.80;10.87;;;1.70;84.80;;;;;;798808;180;26484;-87
2023/12/03 07:18:08;;;;;;;20.27;10.80;;;1.70;84.40;;;;;;784193;179;26456;-88
2023/12/03 07:20:35;;;;;;;19.83;10.93;;;1.70;84.10;;;;;;774078;181;26460;-89
2023/12/03 07:23:01;;;;;;;20.00;11.03;;;1.70;84.30;;;;;;790038;180;26511;-89
2023/12/03 07:25:28;;;;;;;20.40;11.80;;;1.70;84.30;;;;;;767573;187;27043;-86
2023/12/03 07:28:28;;;;;;;22.60;11.93;;;1.80;84.70;;;;;;783879;181;26454;-90
2023/12/03 07:30:54;;;;;;;17.13;9.30;;;1.80;84.20;;;;;;796277;180;26501;-89
2023/12/03 07:33:21;;;;;;;18.53;10.53;;;1.80;83.70;;;;;;798258;180;27083;-91
2023/12/03 07:35:48;;;;;;;18.20;9.07;;;1.80;84.30;;;;;;794066;180;26428;-89
2023/12/03 07:38:14;;;;;;;21.80;12.03;;;1.70;84.60;;;;;;786365;180;28079;-89
2023/12/03 07:40:41;;;;;;;20.90;10.90;;;1.70;85.10;;;;;;791033;181;26440;-89
2023/12/03 07:43:07;;;;;;;20.77;11.63;;;1.70;84.30;;;;;;784160;183;26509;-90
2023/12/03 07:45:34;;;;;;;23.73;12.17;;;1.70;85.30;;;;;;789241;180;26942;-89
2023/12/03 07:48:01;;;;;;;21.80;11.47;;;1.70;85.40;;;;;;779936;181;26516;-89
2023/12/03 07:50:27;;;;;;;20.03;11.00;;;1.60;84.60;;;;;;792343;178;26553;-89
2023/12/03 07:52:54;;;;;;;23.67;12.40;;;1.60;85.50;;;;;;798354;180;26989;-89
2023/12/03 07:55:21;;;;;;;22.23;11.17;;;1.60;85.70;;;;;;795823;180;26402;-90
2023/12/03 07:57:49;;;;;;;20.23;10.97;;;1.60;85.70;;;;;;798403;175;26417;-88
2023/12/03 08:00:15;;;;;;;21.00;10.57;;;1.50;85.10;;;;;;794523;180;26509;-89
2023/12/03 08:02:42;;;;;;;21.77;12.27;;;1.50;85.60;;;;;;783056;180;26438;-89
2023/12/03 08:05:08;;;;;;;20.00;10.70;;;1.50;86.10;;;;;;782723;183;27068;-89
2023/12/03 08:07:35;;;;;;;21.50;11.53;;;1.50;85.90;;;;;;796633;180;26782;-89
2023/12/03 08:10:02;;;;;;;24.87;12.83;;;1.50;86.60;;;;;;782428;184;26469;-91
2023/12/03 08:12:29;;;;;;;22.50;10.93;;;1.40;85.60;;;;;;798356;178;26427;-89
2023/12/03 08:14:55;;;;;;;24.30;11.67;;;1.30;85.60;;;;;;797451;179;26475;-89
2023/12/03 08:17:22;;;;;;;23.60;12.03;;;1.40;85.70;;;;;;781367;181;26513;-90
2023/12/03 08:19:49;;;;;;;20.93;10.50;;;1.40;85.70;;;;;;797074;180;26532;-89
2023/12/03 08:22:16;;;;;;;22.87;12.53;;;1.40;86.00;;;;;;797676;180;26423;-91
2023/12/03 08:24:42;;;;;;;21.70;11.27;;;1.50;85.30;;;;;;798010;180;26438;-90
2023/12/03 08:27:09;;;;;;;20.47;11.40;;;1.50;86.00;;;;;;797667;180;26974;-87
2023/12/03 08:29:54;;;;;;;20.80;11.70;;;1.40;85.30;;;;;;797402;180;26473;-90
2023/12/03 08:32:21;;;;;;;21.33;11.30;;;1.40;85.40;;;;;;796349;180;27058;-90
2023/12/03 08:54:08;;;;;;;20.87;12.10;;;1.70;85.10;;;;;;745567;173;26489;-88
2023/12/03 08:56:43;;;;;;;22.80;11.73;;;1.70;85.00;;;;;;810828;177;26422;-86
2023/12/03 09:02:13;;;;;;;21.40;11.30;;;1.70;84.60;;;;;;806200;177;26419;-86
2023/12/03 09:04:52;;;;;;;23.83;11.90;;;1.70;84.60;;;;;;807237;177;26460;-86
2023/12/03 09:07:30;;;;;;;23.00;12.83;;;1.70;84.40;;;;;;798577;172;26487;-89
2023/12/03 09:10:04;;;;;;;21.53;12.03;;;1.70;84.90;;;;;;792531;181;26457;-88
2023/12/03 09:12:31;;;;;;;21.13;12.23;;;1.80;84.70;;;;;;792579;181;26464;-88
2023/12/03 09:15:19;;;;;;;33.90;16.63;;;1.70;83.90;;;;;;776421;182;27088;-91
2023/12/03 09:17:50;;;;;;;22.23;12.53;;;1.80;84.70;;;;;;780630;184;27071;-87
2023/12/03 09:20:17;;;;;;;22.43;12.60;;;1.90;83.60;;;;;;771630;183;26487;-88
2023/12/03 09:22:44;;;;;;;23.77;13.00;;;1.90;83.60;;;;;;786646;180;26456;-88
2023/12/03 09:27:54;;;;;;;22.87;11.90;;;2.00;84.80;;;;;;789078;180;27030;-89
2023/12/03 09:30:37;;;;;;;23.47;11.70;;;2.10;83.90;;;;;;784332;182;27032;-90
2023/12/03 09:33:07;;;;;;;27.17;14.30;;;1.90;83.20;;;;;;782389;181;26496;-89
2023/12/03 09:38:39;;;;;;;20.53;11.10;;;1.90;83.80;;;;;;781340;180;26482;-89
2023/12/03 09:41:09;;;;;;;22.23;11.60;;;1.80;82.60;;;;;;784087;183;26439;-89
2023/12/03 09:52:04;;;;;;;21.90;11.90;;;3.30;78.00;;;;;;732285;173;26488;-88
2023/12/03 09:58:07;;;;;;;;;;;;;;;;;;;;;
2023/12/03 10:00:41;;;;;;;21.80;12.30;;;3.30;74.20;;;;;;786737;178;26532;-87
2023/12/03 10:03:29;;;;;;;20.23;12.47;;;3.10;76.30;;;;;;790874;178;26454;-88
2023/12/03 10:06:04;;;;;;;23.13;12.27;;;3.00;77.80;;;;;;793379;177;26458;-89
2023/12/03 10:08:42;;;;;;;22.20;13.20;;;3.10;78.00;;;;;;797495;179;26510;-89
2023/12/03 10:11:20;;;;;;;20.63;12.07;;;3.20;76.80;;;;;;795645;179;26442;-87
2023/12/03 10:14:01;;;;;;;22.37;12.33;;;3.00;77.40;;;;;;793040;179;26440;-90
2023/12/03 10:16:30;;;;;;;23.23;12.10;;;2.90;78.80;;;;;;792985;179;26445;-91
2023/12/03 10:19:12;;;;;;;25.77;13.63;;;2.80;78.50;;;;;;793734;179;26470;-88
2023/12/03 10:21:45;;;;;;;20.97;11.63;;;2.70;79.40;;;;;;795497;179;26974;-89
2023/12/03 10:24:15;;;;;;;30.10;15.97;;;2.70;79.00;;;;;;790938;178;26985;-89
2023/12/03 10:29:25;;;;;;;24.80;13.30;;;2.70;79.50;;;;;;793390;179;26444;-89
2023/12/03 10:31:51;;;;;;;22.67;13.53;;;2.90;79.30;;;;;;791341;178;26431;-86
2023/12/03 10:34:21;;;;;;;24.73;12.60;;;2.90;77.70;;;;;;791443;181;26438;-89
2023/12/03 10:36:54;;;;;;;22.00;13.23;;;2.90;77.50;;;;;;794295;179;26443;-87
2023/12/03 10:39:21;;;;;;;27.03;13.77;;;3.10;77.40;;;;;;793262;178;26438;-86
2023/12/03 10:41:49;;;;;;;24.00;12.93;;;3.00;77.90;;;;;;793095;175;26432;-88
2023/12/03 10:44:28;;;;;;;;;;;;;;;;;;;;;
2023/12/03 10:58:12;;;;;;;20.57;12.43;;;4.30;75.10;;;;;;768449;180;27045;-88
2023/12/03 11:00:42;;;;;;;22.30;14.13;;;4.90;75.00;;;;;;782201;183;26477;-88
2023/12/03 11:03:24;;;;;;;22.77;14.03;;;5.60;70.90;;;;;;800903;179;26454;-88
2023/12/03 11:06:14;;;;;;;;;;;;;;;;;;;;;
2023/12/03 11:08:51;;;;;;;23.67;14.97;;;6.20;67.30;;;;;;791622;179;26488;-86
2023/12/03 11:22:32;;;;;;;22.93;14.50;;;6.30;66.30;;;;;;726246;183;26488;-90
2023/12/03 11:25:13;;;;;;;22.57;14.40;;;6.40;65.60;;;;;;781681;184;26460;-87
2023/12/03 11:27:43;;;;;;;23.50;14.67;;;5.90;65.60;;;;;;782156;180;26510;-87
2023/12/03 11:30:18;;;;;;;22.13;14.17;;;5.90;67.80;;;;;;782269;180;26508;-87
2023/12/03 11:32:46;;;;;;;21.57;14.33;;;6.50;66.50;;;;;;782242;181;27118;-87
2023/12/03 11:35:17;;;;;;;23.93;14.77;;;6.50;66.30;;;;;;782315;180;26550;-89
2023/12/03 11:37:48;;;;;;;22.00;14.20;;;6.60;65.60;;;;;;781820;179;26500;-91
2023/12/03 11:40:39;;;;;;;22.10;14.50;;;7.30;63.30;;;;;;781598;184;31832;-90
2023/12/03 11:43:09;;;;;;;21.50;14.63;;;7.50;60.40;;;;;;782015;180;26497;-89
2023/12/03 11:45:35;;;;;;;22.63;13.70;;;6.70;64.60;;;;;;780654;183;26473;-87
2023/12/03 11:48:27;;;;;;;21.23;13.30;;;7.00;63.50;;;;;;784130;181;26626;-89
2023/12/03 11:51:15;;;;;;;19.70;13.20;;;6.80;63.70;;;;;;782642;180;26487;-89
2023/12/03 11:56:26;;;;;;;18.63;12.57;;;6.50;63.60;;;;;;783015;183;26468;-89
2023/12/03 11:59:26;;;;;;;;;;;;;;;;;;;;;
2023/12/03 12:02:00;;;;;;;20.47;12.40;;;7.10;60.80;;;;;;780797;180;27039;-88
2023/12/03 12:04:33;;;;;;;18.20;12.03;;;6.80;60.60;;;;;;783166;180;26466;-88
2023/12/03 12:07:19;;;;;;;19.13;12.63;;;6.50;63.50;;;;;;782520;180;26488;-88
2023/12/03 12:09:57;;;;;;;19.33;13.40;;;6.20;65.10;;;;;;782708;184;26479;-88
2023/12/03 12:12:39;;;;;;;20.87;12.33;;;5.60;66.30;;;;;;782616;184;26471;-88
2023/12/03 12:15:10;;;;;;;18.67;11.97;;;5.30;68.60;;;;;;782535;180;26467;-88
2023/12/03 12:17:38;;;;;;;20.60;12.90;;;5.10;68.30;;;;;;782567;183;26488;-88
2023/12/03 12:20:13;;;;;;;21.97;13.20;;;5.00;68.80;;;;;;782398;184;26542;-88
2023/12/03 12:22:39;;;;;;;23.73;13.17;;;5.10;71.40;;;;;;782179;180;26476;-88
2023/12/03 12:27:49;;;;;;;16.20;10.13;;;5.30;68.40;;;;;;781751;181;27137;-87
2023/12/03 12:30:18;;;;;;;17.23;11.13;;;5.40;66.60;;;;;;781798;181;26492;-88
2023/12/03 12:32:51;;;;;;;19.70;11.13;;;5.70;67.20;;;;;;781821;181;26477;-88
2023/12/03 12:35:22;;;;;;;15.60;10.30;;;5.90;65.00;;;;;;782015;183;26497;-86
2023/12/03 12:38:10;;;;;;;22.83;12.87;;;6.40;62.70;;;;;;782237;181;26498;-87
2023/12/03 12:40:40;;;;;;;20.40;11.33;;;6.80;62.10;;;;;;782428;180;27728;-87
2023/12/03 12:43:11;;;;;;;13.30;9.53;;;7.50;62.10;;;;;;782391;184;26523;-85
2023/12/03 12:45:39;;;;;;;16.07;10.83;;;8.40;57.30;;;;;;782352;180;26504;-88
2023/12/03 12:48:20;;;;;;;15.03;10.43;;;8.60;56.20;;;;;;782323;181;27055;-88
2023/12/03 12:51:13;;;;;;;;;;;;;;;;;;;;;
2023/12/03 12:53:55;;;;;;;14.17;10.10;;;7.40;59.00;;;;;;782341;180;27031;-87
2023/12/03 12:56:33;;;;;;;15.70;10.73;;;8.10;56.40;;;;;;782081;183;26511;-89
2023/12/03 13:01:58;;;;;;;16.77;11.33;;;7.90;56.50;;;;;;783828;183;27061;-89
2023/12/03 13:04:25;;;;;;;17.30;11.63;;;7.70;57.30;;;;;;783287;180;26497;-89
2023/12/03 13:07:25;;;;;;;16.60;11.33;;;7.70;57.40;;;;;;783274;183;26491;-89
2023/12/03 13:09:39;;;;;;;19.43;13.20;;;7.90;59.40;;;;;;781141;180;26490;-89
2023/12/03 13:12:09;;;;;;;18.10;12.40;;;8.20;57.70;;;;;;782914;183;27013;-89
2023/12/03 13:14:46;;;;;;;;;;;;;;;;;;;;;
2023/12/03 13:17:12;;;;;;;15.20;10.93;;;8.60;56.10;;;;;;782551;180;26489;-89
2023/12/03 13:19:42;;;;;;;18.17;12.37;;;8.90;55.40;;;;;;782871;184;27015;-88
2023/12/03 13:22:09;;;;;;;15.90;11.00;;;8.80;55.40;;;;;;782650;180;26510;-89
2023/12/03 13:24:39;;;;;;;16.17;11.37;;;8.30;56.40;;;;;;782601;184;26461;-87
2023/12/03 13:27:10;;;;;;;19.47;13.70;;;8.50;57.00;;;;;;782314;183;27020;-88
2023/12/03 13:29:46;;;;;;;18.70;12.50;;;8.00;55.90;;;;;;771316;180;26497;-89
2023/12/03 13:32:15;;;;;;;18.43;11.67;;;7.70;57.50;;;;;;782428;181;26476;-87
2023/12/03 13:34:42;;;;;;;17.07;11.50;;;7.50;58.60;;;;;;782322;180;26468;-88
2023/12/03 13:37:09;;;;;;;18.17;11.47;;;7.00;60.20;;;;;;782029;184;26536;-90
2023/12/03 13:39:42;;;;;;;17.50;11.80;;;7.20;60.20;;;;;;782103;180;26476;-89
2023/12/03 13:42:20;;;;;;;18.30;11.47;;;7.50;59.00;;;;;;781880;184;26472;-88
2023/12/03 13:44:53;;;;;;;16.00;10.87;;;8.10;57.50;;;;;;782161;181;27029;-88
2023/12/03 13:47:20;;;;;;;19.30;11.77;;;7.60;57.60;;;;;;782183;183;27010;-89
2023/12/03 13:49:46;;;;;;;19.07;12.13;;;7.20;58.60;;;;;;782241;180;26477;-89
2023/12/03 13:52:16;;;;;;;21.33;12.97;;;7.00;60.00;;;;;;782207;180;26637;-88
2023/12/03 13:54:42;;;;;;;17.10;11.10;;;7.00;59.30;;;;;;782157;184;26485;-90
2023/12/03 13:57:09;;;;;;;17.63;11.37;;;6.40;60.90;;;;;;782038;180;26512;-87
2023/12/03 13:59:39;;;;;;;18.43;11.90;;;6.00;63.00;;;;;;782240;180;27010;-89
2023/12/03 14:02:14;;;;;;;21.40;12.10;;;5.80;65.50;;;;;;782112;180;26489;-88
2023/12/03 14:04:40;;;;;;;21.97;12.23;;;5.50;66.60;;;;;;782401;181;26667;-88
2023/12/03 14:07:08;;;;;;;18.63;11.57;;;5.40;67.00;;;;;;782428;180;26488;-87
2023/12/03 14:09:34;;;;;;;18.33;10.73;;;5.30;67.50;;;;;;782975;181;26483;-88
2023/12/03 14:12:03;;;;;;;19.63;12.03;;;5.20;67.20;;;;;;784719;180;27034;-88
2023/12/03 14:14:30;;;;;;;27.70;15.20;;;5.10;69.50;;;;;;784019;180;26472;-87
2023/12/03 14:16:57;;;;;;;21.37;12.37;;;4.60;69.50;;;;;;776210;177;26564;-87
2023/12/03 14:19:30;;;;;;;20.77;12.30;;;4.70;70.70;;;;;;762243;186;26542;-87
2023/12/03 14:22:12;;;;;;;20.53;12.43;;;4.70;69.20;;;;;;757122;187;26538;-88
2023/12/03 14:24:46;;;;;;;21.00;12.20;;;4.70;70.00;;;;;;754712;185;26546;-88
2023/12/03 14:27:26;;;;;;;21.87;12.40;;;4.80;71.00;;;;;;762693;187;27070;-88
2023/12/03 14:29:54;;;;;;;27.20;14.17;;;4.80;70.30;;;;;;764150;187;26510;-89
2023/12/03 14:32:22;;;;;;;19.87;11.00;;;4.70;69.40;;;;;;759121;185;26520;-91
2023/12/03 14:34:48;;;;;;;24.63;13.47;;;4.40;69.90;;;;;;759050;189;27080;-88
2023/12/03 14:37:15;;;;;;;23.73;13.83;;;4.20;71.60;;;;;;762573;183;26577;-86
2023/12/03 14:39:44;;;;;;;24.37;14.03;;;4.20;73.20;;;;;;782960;183;26494;-87
2023/12/03 14:42:23;;;;;;;28.50;16.93;;;4.20;73.90;;;;;;781823;183;26481;-87
2023/12/03 14:44:49;;;;;;;24.83;13.80;;;4.10;73.00;;;;;;779800;184;26606;-87
2023/12/03 14:47:16;;;;;;;23.57;14.53;;;4.00;73.40;;;;;;778127;184;26539;-88
2023/12/03 14:49:44;;;;;;;20.53;12.40;;;4.00;73.50;;;;;;779276;184;26487;-90